map of TVL home
TVL - Airport
Location
City:  South Lake Tahoe, California, United States
Name:Lake Tahoe Airport
ICAO:KTVL
IATA:TVL
FAA LID:TVL

Details
Type:Airport (Airfield)
Use:Public/Civil
Latitude:3853'38"N (38.893889)
Longitude:11959'43"W (-119.995332)
Datum:WGS 1984
Elevation:6268 ft (1910 m)
Variation:13.24E (WMM2015v2 magnetic declination)
-0.08 annual change
Runways:1
Longest:8541 × 100 ft (2603 × 30.5 m), paved

Time
Time Zone:UTC-8 (DST-7)
Local Time:

Weather
METAR:KTVL 041414Z AUTO 19010KT 1/2SM SN FZFG VV005 M02/M03 A2937 RMK AO2 P0003 T10171028
TAF:KTVL 041320Z 0413/0512 20012G23KT 1/2SM SN FG OVC005
FM050200 20012KT 1/2SM SN FG OVC003

Related Locations
Nearby:
Farthest:FTU: 11214 mi / 18047 km
Tolagnaro [Maurillac Airport (Fort Dauphin Airport)], MG

Find:

   beyond  
but within

Other Information
Maps:
NOTAMs:
Links:
Sources:

  
  • flag of United States
  • flag of California
  

Airport Diagram

Airport diagram for TVL

Airport diagram PDF from FAA

Sectional Chart

Flight Planning
at skyvector.com

Satellite Image

Google Maps Satellite view

 

Copyright © 2004-2019 Karl L. Swartz. All rights reserved.
The Great Circle Mapper name and logo are trademarks of the Great Circle Mapper.
All other trademarks mentioned herein belong to their respective owners.
Please see credits for attibutions and further copyright information.

  Follow gcmap on Facebook Follow gcmap on Twitter GCmap on LinkedIn

hCard Microformat

Geo Microformat